Time;durP1;ratioP1;P1;durP2;ratioP2;P2;SDS_P1;SDS_P2;PMS_P1;PMS_P2;Temp;Humidity;BMP_temperature;BMP_pressure;BME280_temperature;BME280_humidity;BME280_pressure;Samples;Min_cycle;Max_cycle;Signal;HPM_P1;HPM_P2
2024/01/20 05:01:26;;;;;;;19.63;13.23;;;2.20;99.90;;;;;;5457120;23;20277;-72
2024/01/20 05:03:53;;;;;;;20.77;11.27;;;2.20;99.90;;;;;;4935814;29;20220;-72
2024/01/20 05:06:19;;;;;;;12.63;10.23;;;2.20;99.90;;;;;;4935432;29;20232;-72
2024/01/20 05:08:46;;;;;;;6.80;6.15;;;2.20;99.90;;;;;;4936398;29;20561;-70
2024/01/20 05:11:13;;;;;;;12.60;10.88;;;2.20;99.90;;;;;;4936424;29;20223;-70
2024/01/20 05:13:40;;;;;;;21.05;13.70;;;2.20;99.90;;;;;;4936023;29;20210;-70
2024/01/20 05:16:06;;;;;;;22.02;10.75;;;2.30;99.90;;;;;;4931803;29;20208;-71
2024/01/20 05:18:34;;;;;;;18.58;13.38;;;2.20;99.90;;;;;;4936610;29;20239;-71
2024/01/20 05:21:01;;;;;;;20.10;14.15;;;2.30;99.90;;;;;;4936252;29;20244;-71
2024/01/20 05:23:28;;;;;;;18.52;12.70;;;2.30;99.90;;;;;;4938283;29;20216;-71
2024/01/20 05:25:55;;;;;;;19.35;13.02;;;2.20;99.90;;;;;;4936261;29;20208;-71
2024/01/20 05:28:21;;;;;;;24.80;13.07;;;2.20;99.90;;;;;;4934527;29;20215;-71
2024/01/20 05:30:48;;;;;;;18.33;11.52;;;2.20;99.90;;;;;;4935898;29;20251;-71
2024/01/20 05:33:15;;;;;;;17.83;10.48;;;2.20;99.90;;;;;;4935643;29;20217;-71
2024/01/20 05:35:43;;;;;;;16.23;12.27;;;2.20;99.90;;;;;;4935546;29;20218;-71
2024/01/20 05:38:09;;;;;;;12.98;10.75;;;2.20;99.90;;;;;;4936533;29;20212;-71
2024/01/20 05:40:36;;;;;;;18.85;11.38;;;2.20;99.90;;;;;;4934537;29;20241;-71
2024/01/20 05:43:04;;;;;;;17.00;11.02;;;2.20;99.90;;;;;;4935876;29;20251;-70
2024/01/20 05:45:30;;;;;;;16.25;9.50;;;2.20;99.90;;;;;;4935711;29;20235;-71
2024/01/20 05:47:57;;;;;;;13.93;11.73;;;2.10;99.90;;;;;;4928341;29;20211;-71
2024/01/20 05:50:24;;;;;;;15.52;9.38;;;2.10;99.90;;;;;;4934055;29;20683;-71
2024/01/20 05:52:52;;;;;;;12.05;8.68;;;2.10;99.90;;;;;;4929827;29;20212;-71
2024/01/20 05:55:19;;;;;;;20.25;11.52;;;2.10;99.90;;;;;;4930896;29;20204;-71
2024/01/20 05:57:46;;;;;;;10.25;8.23;;;2.10;99.90;;;;;;4936100;29;20207;-71
2024/01/20 06:00:13;;;;;;;9.90;6.35;;;2.10;99.90;;;;;;4937007;29;20208;-72
2024/01/20 06:02:40;;;;;;;15.07;8.90;;;2.10;99.90;;;;;;4935942;29;20231;-72
2024/01/20 06:05:07;;;;;;;16.35;11.73;;;2.10;99.90;;;;;;4935901;29;20626;-72
2024/01/20 06:07:34;;;;;;;11.55;8.93;;;2.10;99.90;;;;;;4935004;29;20578;-72
2024/01/20 06:10:02;;;;;;;13.95;10.23;;;2.10;99.90;;;;;;4933507;28;20251;-72
2024/01/20 06:12:29;;;;;;;16.77;9.10;;;2.10;99.90;;;;;;4935541;29;20251;-72
2024/01/20 06:14:56;;;;;;;8.75;7.68;;;2.10;99.90;;;;;;4933644;29;20208;-71
2024/01/20 06:17:22;;;;;;;12.77;9.60;;;2.10;99.90;;;;;;4935675;29;20222;-71
2024/01/20 06:19:49;;;;;;;14.90;10.90;;;2.10;99.90;;;;;;4931846;29;20635;-71
2024/01/20 06:22:16;;;;;;;15.55;9.88;;;2.10;99.90;;;;;;4930819;29;20241;-70
2024/01/20 06:24:43;;;;;;;14.45;10.02;;;2.10;99.90;;;;;;4933561;29;20583;-71
2024/01/20 06:27:11;;;;;;;18.92;10.07;;;2.10;99.90;;;;;;4934002;29;20213;-71
2024/01/20 06:29:41;;;;;;;12.98;10.18;;;2.10;99.90;;;;;;4935028;29;20211;-71
2024/01/20 06:32:08;;;;;;;14.95;9.18;;;2.10;99.90;;;;;;4933715;29;20274;-71
2024/01/20 06:34:34;;;;;;;22.98;8.75;;;2.10;99.90;;;;;;4933540;29;20208;-71
2024/01/20 06:37:01;;;;;;;14.40;8.52;;;2.10;99.90;;;;;;4928485;29;20575;-72
2024/01/20 06:39:28;;;;;;;21.50;8.88;;;2.10;99.90;;;;;;4933728;29;20686;-71
2024/01/20 06:41:54;;;;;;;17.77;9.35;;;2.10;99.90;;;;;;4932925;29;20234;-71
2024/01/20 06:44:22;;;;;;;20.27;12.23;;;2.10;99.90;;;;;;4934938;29;20667;-72
2024/01/20 06:46:49;;;;;;;10.70;7.90;;;2.10;99.90;;;;;;4931819;29;20224;-71
2024/01/20 06:49:16;;;;;;;22.77;8.63;;;2.10;99.90;;;;;;4933642;29;20660;-71
2024/01/20 06:51:43;;;;;;;14.48;7.85;;;2.10;99.90;;;;;;4932452;29;20699;-71
2024/01/20 06:54:10;;;;;;;9.85;6.97;;;2.00;99.90;;;;;;4934228;29;20260;-71
2024/01/20 06:56:37;;;;;;;10.40;6.20;;;2.00;99.90;;;;;;4936014;29;20211;-71
2024/01/20 06:59:04;;;;;;;15.13;10.85;;;2.00;99.90;;;;;;4933848;29;20211;-71
2024/01/20 07:01:32;;;;;;;8.60;6.28;;;2.00;99.90;;;;;;4932963;29;20247;-72
2024/01/20 07:03:58;;;;;;;8.85;6.22;;;2.00;99.90;;;;;;4936049;29;20211;-70
2024/01/20 07:06:25;;;;;;;16.42;9.10;;;1.90;99.90;;;;;;4935411;29;20215;-70
2024/01/20 07:08:52;;;;;;;15.93;9.30;;;1.90;99.90;;;;;;4935240;29;20217;-71
2024/01/20 07:11:19;;;;;;;9.70;7.15;;;1.90;99.90;;;;;;4934867;29;20318;-70
2024/01/20 07:13:46;;;;;;;16.20;8.90;;;1.80;99.90;;;;;;4935501;29;20212;-70
2024/01/20 07:16:14;;;;;;;13.18;7.47;;;1.80;99.90;;;;;;4934392;29;20209;-70
2024/01/20 07:18:43;;;;;;;14.55;8.45;;;1.80;99.90;;;;;;4935161;29;20210;-70
2024/01/20 07:21:09;;;;;;;6.43;3.78;;;1.80;99.90;;;;;;4936452;29;20247;-70
2024/01/20 07:23:36;;;;;;;11.30;7.13;;;1.80;99.90;;;;;;4931891;29;20230;-69
2024/01/20 07:26:03;;;;;;;8.55;6.25;;;1.80;99.90;;;;;;4932601;29;20204;-71
2024/01/20 07:28:30;;;;;;;15.27;8.93;;;1.80;99.90;;;;;;4932233;29;20212;-69
2024/01/20 07:30:56;;;;;;;12.27;6.65;;;1.80;99.90;;;;;;4932822;29;20230;-71
2024/01/20 07:33:23;;;;;;;5.18;3.70;;;1.80;99.90;;;;;;4933288;29;20212;-69
2024/01/20 07:35:51;;;;;;;13.93;8.90;;;1.80;99.90;;;;;;4933513;29;20241;-69
2024/01/20 07:38:19;;;;;;;11.60;7.78;;;1.80;99.90;;;;;;4931198;29;20213;-69
2024/01/20 07:40:46;;;;;;;15.20;7.05;;;1.80;99.90;;;;;;4932231;29;20234;-71
2024/01/20 07:43:13;;;;;;;11.98;8.25;;;1.80;99.90;;;;;;4932639;29;20225;-70
2024/01/20 07:45:40;;;;;;;7.65;5.70;;;1.80;99.90;;;;;;4930278;29;20218;-70
2024/01/20 07:48:07;;;;;;;8.25;7.32;;;1.90;99.90;;;;;;4933085;29;20204;-71
2024/01/20 07:50:34;;;;;;;9.93;7.65;;;1.80;99.90;;;;;;4935270;29;20228;-70
2024/01/20 07:53:02;;;;;;;10.73;5.68;;;1.80;99.90;;;;;;4931649;29;20648;-73
2024/01/20 07:55:29;;;;;;;13.60;8.18;;;1.80;99.90;;;;;;4932663;29;20295;-72
2024/01/20 07:57:56;;;;;;;10.88;7.43;;;1.70;99.90;;;;;;4933092;29;20203;-71
2024/01/20 08:00:22;;;;;;;11.32;6.97;;;1.70;99.90;;;;;;4925829;29;20212;-71
2024/01/20 08:02:49;;;;;;;11.07;7.70;;;1.70;99.90;;;;;;4932144;29;20286;-71
2024/01/20 08:05:16;;;;;;;9.80;6.57;;;1.70;99.90;;;;;;4929005;29;21278;-69
2024/01/20 08:07:43;;;;;;;9.32;7.55;;;1.70;99.90;;;;;;4932075;29;20219;-70
2024/01/20 08:10:12;;;;;;;15.43;6.35;;;1.70;99.90;;;;;;4932883;29;20207;-71
2024/01/20 08:12:39;;;;;;;16.98;6.63;;;1.70;99.90;;;;;;4932443;29;20206;-71
2024/01/20 08:15:07;;;;;;;11.45;6.95;;;1.70;99.90;;;;;;4931071;29;20703;-72
2024/01/20 08:17:33;;;;;;;7.30;5.60;;;1.70;99.90;;;;;;4928682;29;20667;-71
2024/01/20 08:20:00;;;;;;;10.60;7.47;;;1.70;99.90;;;;;;4928182;29;20202;-70
2024/01/20 08:22:27;;;;;;;9.70;8.20;;;1.70;99.90;;;;;;4926075;29;20246;-70
2024/01/20 08:24:54;;;;;;;8.95;6.72;;;1.80;99.90;;;;;;4923712;29;20215;-70
2024/01/20 08:27:22;;;;;;;16.15;7.43;;;1.80;99.90;;;;;;4932571;29;20204;-71
2024/01/20 08:29:48;;;;;;;13.85;6.30;;;1.80;99.90;;;;;;4933079;29;20218;-71
2024/01/20 08:32:15;;;;;;;11.88;8.07;;;1.80;99.90;;;;;;4933285;29;20228;-70
2024/01/20 08:34:42;;;;;;;13.85;5.88;;;1.90;99.90;;;;;;4930464;29;20219;-70
2024/01/20 08:37:09;;;;;;;9.13;7.00;;;1.90;99.90;;;;;;4931554;29;20208;-70
2024/01/20 08:39:35;;;;;;;13.10;6.55;;;1.90;99.90;;;;;;4931822;29;20203;-70
2024/01/20 08:42:03;;;;;;;11.38;8.48;;;1.90;99.90;;;;;;4928292;29;20242;-71
2024/01/20 08:44:32;;;;;;;11.60;8.05;;;1.90;99.90;;;;;;4932821;29;20246;-70
2024/01/20 08:46:59;;;;;;;13.85;6.20;;;1.90;99.90;;;;;;4933015;29;20208;-70
2024/01/20 08:49:26;;;;;;;20.80;8.90;;;1.90;99.90;;;;;;4927373;29;20208;-70
2024/01/20 08:51:54;;;;;;;15.88;8.60;;;2.00;99.90;;;;;;4932748;29;20747;-70
2024/01/20 08:54:21;;;;;;;15.05;8.07;;;2.00;99.90;;;;;;4931884;29;20664;-70
2024/01/20 08:56:49;;;;;;;9.05;6.32;;;2.00;99.90;;;;;;4926738;29;20911;-70
2024/01/20 08:59:18;;;;;;;13.02;6.82;;;2.10;99.90;;;;;;4933172;29;20214;-72
2024/01/20 09:01:46;;;;;;;11.00;8.13;;;2.10;99.90;;;;;;4931402;29;20286;-71
2024/01/20 09:04:13;;;;;;;11.43;6.68;;;2.10;99.90;;;;;;4932379;29;20231;-70
2024/01/20 09:06:40;;;;;;;8.20;5.68;;;2.20;99.90;;;;;;4932592;29;20208;-70
2024/01/20 09:09:07;;;;;;;13.07;7.63;;;2.20;99.90;;;;;;4930697;29;20212;-70
2024/01/20 09:11:34;;;;;;;11.57;6.90;;;2.30;99.90;;;;;;4931643;29;20374;-70
2024/01/20 09:14:00;;;;;;;7.80;3.95;;;2.30;99.90;;;;;;4931738;29;20264;-71
2024/01/20 09:16:27;;;;;;;11.43;8.27;;;2.30;99.90;;;;;;4932217;29;20213;-71
2024/01/20 09:18:55;;;;;;;14.73;7.40;;;2.40;99.90;;;;;;4929269;29;20579;-70
2024/01/20 09:21:22;;;;;;;8.55;5.90;;;2.40;99.90;;;;;;4932168;29;20239;-71
2024/01/20 09:23:50;;;;;;;14.45;5.35;;;2.40;99.90;;;;;;4933002;29;20247;-70
2024/01/20 09:26:17;;;;;;;13.80;6.72;;;2.40;99.90;;;;;;4934130;29;20204;-70
2024/01/20 09:28:44;;;;;;;13.32;6.57;;;2.50;99.90;;;;;;4933198;29;20328;-71
2024/01/20 09:31:11;;;;;;;11.23;8.00;;;2.50;99.90;;;;;;4931884;29;20324;-71
2024/01/20 09:33:37;;;;;;;10.40;6.22;;;2.60;99.90;;;;;;4935364;29;20202;-71
2024/01/20 09:36:06;;;;;;;9.25;6.38;;;2.60;99.90;;;;;;4936120;29;20211;-70
2024/01/20 09:38:33;;;;;;;9.23;5.90;;;2.60;99.90;;;;;;4935130;29;20695;-74
2024/01/20 09:41:00;;;;;;;9.90;6.45;;;2.60;99.90;;;;;;4935294;29;20250;-70
2024/01/20 09:43:28;;;;;;;8.95;6.13;;;2.70;99.90;;;;;;4932205;29;20232;-72
2024/01/20 09:45:57;;;;;;;18.77;8.13;;;2.60;99.90;;;;;;4930579;29;20248;-71
2024/01/20 09:48:24;;;;;;;11.27;6.30;;;2.60;99.90;;;;;;4934575;29;20231;-70
2024/01/20 09:50:51;;;;;;;6.05;5.18;;;2.70;99.90;;;;;;4933809;29;20656;-70
2024/01/20 09:53:19;;;;;;;7.30;5.60;;;2.70;99.90;;;;;;4934501;29;20606;-70
2024/01/20 09:55:47;;;;;;;12.48;5.97;;;2.70;99.90;;;;;;4933222;29;20219;-70
2024/01/20 09:58:17;;;;;;;18.40;7.40;;;2.80;99.90;;;;;;4930578;29;20215;-70
2024/01/20 10:00:44;;;;;;;9.32;7.45;;;2.80;99.90;;;;;;4935044;29;20243;-69
2024/01/20 10:03:12;;;;;;;11.88;7.95;;;2.80;99.90;;;;;;4933077;29;20217;-69
2024/01/20 10:05:39;;;;;;;14.88;7.95;;;2.80;99.90;;;;;;4935716;29;20288;-69
2024/01/20 10:08:07;;;;;;;7.47;6.43;;;2.90;99.90;;;;;;4933429;29;20213;-70
2024/01/20 10:10:35;;;;;;;13.13;5.95;;;2.90;99.90;;;;;;4933923;29;20239;-70
2024/01/20 10:13:02;;;;;;;7.78;6.47;;;2.90;99.90;;;;;;4935685;29;20781;-70
2024/01/20 10:15:30;;;;;;;9.00;5.82;;;3.00;99.90;;;;;;4936056;29;20215;-69
2024/01/20 10:17:59;;;;;;;10.68;6.03;;;3.00;99.90;;;;;;4935249;29;20613;-69
2024/01/20 10:20:31;;;;;;;13.90;7.97;;;3.10;99.90;;;;;;4935570;29;20226;-69
2024/01/20 10:23:00;;;;;;;13.75;6.45;;;3.20;99.90;;;;;;4936168;29;20222;-69
2024/01/20 10:25:27;;;;;;;6.18;5.57;;;3.20;99.90;;;;;;4936011;29;20249;-69
2024/01/20 10:27:55;;;;;;;13.50;5.70;;;3.30;99.90;;;;;;4932346;29;20579;-69
2024/01/20 10:30:23;;;;;;;8.07;4.40;;;3.30;99.90;;;;;;4932004;29;20216;-71
2024/01/20 10:32:50;;;;;;;8.98;4.68;;;3.30;99.90;;;;;;4934536;29;20210;-70
2024/01/20 10:35:17;;;;;;;12.48;7.15;;;3.30;99.90;;;;;;4930850;29;20684;-70
2024/01/20 10:37:46;;;;;;;12.80;5.03;;;3.40;99.90;;;;;;4932386;29;20210;-70
2024/01/20 10:40:14;;;;;;;10.10;5.75;;;3.40;99.90;;;;;;4930880;29;20213;-70
2024/01/20 10:42:45;;;;;;;9.88;5.95;;;3.50;99.90;;;;;;4934307;29;20210;-70
2024/01/20 10:45:19;;;;;;;13.07;6.93;;;3.50;99.90;;;;;;4932574;29;20257;-71
2024/01/20 10:48:04;;;;;;;11.98;7.40;;;3.60;99.90;;;;;;4935919;29;20210;-70
2024/01/20 10:50:31;;;;;;;13.05;6.25;;;3.70;99.90;;;;;;4931779;29;20232;-71
2024/01/20 10:52:59;;;;;;;8.93;5.63;;;3.70;99.90;;;;;;4933964;29;20213;-70
2024/01/20 10:55:26;;;;;;;9.82;6.25;;;3.80;99.90;;;;;;4933078;29;20669;-70
2024/01/20 10:57:54;;;;;;;13.27;7.13;;;3.80;99.90;;;;;;4933025;29;20221;-71
2024/01/20 11:00:23;;;;;;;5.47;4.97;;;3.90;99.90;;;;;;4933049;28;20217;-69
2024/01/20 11:02:50;;;;;;;15.00;7.57;;;4.00;99.90;;;;;;4930550;29;20220;-70
2024/01/20 11:05:19;;;;;;;15.93;6.13;;;4.00;99.90;;;;;;4933250;29;20213;-69
2024/01/20 11:07:56;;;;;;;8.20;5.78;;;4.10;99.90;;;;;;4935569;29;20206;-69
